ADDS METAR Data INFO
IDs: Format: Raw Decoded Include TAF

Data at: 0311 UTC 20 Jul 2018

KF70 200255Z AUTO 19010KT 10SM CLR 25/15 A2996 RMK AO1
KF70 200235Z AUTO 20008KT 10SM CLR 26/16 A2996 RMK AO1
KF70 200215Z AUTO 20009KT 10SM CLR 26/16 A2996 RMK AO1
KF70 200155Z AUTO 19011KT 10SM CLR 27/16 A2994 RMK AO1
KF70 200135Z AUTO 19010KT 10SM CLR 28/16 A2994 RMK AO1
KF70 200115Z AUTO 18011G14KT 10SM CLR 28/16 A2993 RMK AO1
KF70 200055Z AUTO 22010KT 10SM CLR 28/15 A2993 RMK AO1
KF70 200035Z AUTO 21010KT 10SM CLR 29/15 A2993 RMK AO1
KF70 200015Z AUTO 20010G15KT 10SM CLR 29/15 A2993 RMK AO1
KF70 192355Z AUTO 21008G16KT 10SM CLR 30/16 A2993 RMK AO1
KF70 192335Z AUTO 20010G17KT 10SM CLR 29/16 A2993 RMK AO1
KF70 192315Z AUTO 23012G18KT 10SM CLR 29/16 A2993 RMK AO1
KF70 192255Z AUTO 22011KT 10SM CLR 30/16 A2994 RMK AO1
KF70 192235Z AUTO 20011G18KT 10SM CLR 30/16 A2994 RMK AO1
KF70 192215Z AUTO 21011G19KT 10SM CLR 30/15 A2994 RMK AO1
KF70 192155Z AUTO 21012KT 10SM CLR 30/16 A2994 RMK AO1
KF70 192135Z AUTO 21011G18KT 10SM CLR 32/17 A2994 RMK AO1
KF70 192115Z AUTO 21012G18KT 10SM CLR 32/17 A2994 RMK AO1
KF70 192055Z AUTO 21013G19KT 10SM CLR 33/17 A2995 RMK AO1
KF70 192035Z AUTO 20013G16KT 10SM CLR 32/17 A2995 RMK AO1
KF70 192015Z AUTO 21012G17KT 10SM CLR 33/18 A2996 RMK AO1
KF70 191955Z AUTO 22010G14KT 10SM CLR 33/18 A2996 RMK AO1
KF70 191935Z AUTO 19010G16KT 10SM CLR 32/18 A2997 RMK AO1
KF70 191915Z AUTO 20008KT 10SM CLR 32/18 A2997 RMK AO1
KF70 191855Z AUTO 22006KT 10SM CLR 32/18 A2997 RMK AO1
KF70 191835Z AUTO 22007KT 10SM CLR 31/19 A2998 RMK AO1
KF70 191815Z AUTO 18003KT 10SM CLR 31/18 A2998 RMK AO1
KF70 191755Z AUTO 20004KT 10SM CLR 30/18 A2999 RMK AO1
KF70 191735Z AUTO 22003KT 10SM CLR 29/18 A2999 RMK AO1
KF70 191715Z AUTO 24004KT 10SM CLR 28/18 A3000 RMK AO1
KF70 191655Z AUTO 00000KT 10SM CLR 27/18 A3000 RMK AO1
KF70 191635Z AUTO 17005KT 10SM CLR 27/18 A3000 RMK AO1
KF70 191610Z AUTO 22003KT 10SM CLR 26/18 A3001 RMK AO1
KF70 191555Z AUTO 00000KT 10SM CLR 25/18 A3001 RMK AO1
KF70 191535Z AUTO 00000KT 10SM CLR 24/17 A3001 RMK AO1
KF70 191515Z AUTO 00000KT 10SM CLR 23/17 A3001 RMK AO1
KF70 191455Z AUTO 00000KT 10SM CLR 22/17 A3001 RMK AO1
KF70 191435Z AUTO 00000KT 10SM CLR 22/17 A3001 RMK AO1
KF70 191415Z AUTO 00000KT 10SM CLR 21/17 A3001 RMK AO1
KF70 191355Z AUTO 00000KT 10SM CLR 21/17 A3001 RMK AO1
KF70 191335Z AUTO 00000KT 10SM CLR 20/17 A3000 RMK AO1
KF70 191315Z AUTO 00000KT 10SM CLR 20/17 A3000 RMK AO1
KF70 191255Z AUTO 00000KT 10SM CLR 20/17 A2999 RMK AO1
KF70 191235Z AUTO 00000KT 10SM CLR 20/17 A2999 RMK AO1
KF70 191215Z AUTO 00000KT 10SM CLR 20/17 A2998 RMK AO1
KF70 191155Z AUTO 00000KT 10SM CLR 20/17 A2998 RMK AO1
KF70 191135Z AUTO 00000KT 10SM CLR 20/17 A2998 RMK AO1
KF70 191115Z AUTO 00000KT 10SM CLR 20/17 A2998 RMK AO1
KF70 191055Z AUTO 00000KT 10SM CLR 20/17 A2998 RMK AO1
KF70 191035Z AUTO 00000KT 10SM CLR 20/17 A2998 RMK AO1
KF70 191015Z AUTO 00000KT 10SM CLR 20/17 A2998 RMK AO1
KF70 190955Z AUTO 00000KT 10SM CLR 20/17 A2999 RMK AO1
KF70 190935Z AUTO 15003KT 10SM CLR 20/17 A2999 RMK AO1
KF70 190915Z AUTO 00000KT 10SM CLR 20/17 A2999 RMK AO1
KF70 190855Z AUTO 00000KT 10SM CLR 20/17 A2999 RMK AO1
KF70 190835Z AUTO 00000KT 10SM CLR 20/17 A3000 RMK AO1
KF70 190815Z AUTO 00000KT 10SM CLR 19/17 A3001 RMK AO1
KF70 190755Z AUTO 00000KT 10SM CLR 20/17 A3001 RMK AO1
KF70 190735Z AUTO 00000KT 10SM CLR 20/17 A3001 RMK AO1
KF70 190715Z AUTO 15003KT 10SM CLR 20/17 A3002 RMK AO1
KF70 190655Z AUTO 00000KT 10SM CLR 20/17 A3002 RMK AO1
KF70 190635Z AUTO 14003KT 10SM CLR 20/17 A3002 RMK AO1
KF70 190615Z AUTO 16004KT 10SM CLR 20/17 A3003 RMK AO1
KF70 190555Z AUTO 19003KT 10SM CLR 20/17 A3003 RMK AO1
KF70 190535Z AUTO 17004KT 10SM CLR 20/17 A3003 RMK AO1
KF70 190515Z AUTO 18005KT 10SM CLR 20/17 A3003 RMK AO1
KF70 190455Z AUTO 19004KT 10SM CLR 21/17 A3002 RMK AO1
KF70 190435Z AUTO 16006KT 10SM CLR 21/17 A3002 RMK AO1
KF70 190415Z AUTO 19005KT 10SM CLR 21/17 A3002 RMK AO1
KF70 190355Z AUTO 21006KT 10SM CLR 21/17 A3001 RMK AO1
KF70 190335Z AUTO 21005KT 10SM CLR 22/17 A3000 RMK AO1
KF70 190315Z AUTO 19006KT 10SM CLR 23/17 A2999 RMK AO1
KF70 190255Z AUTO 20005KT 10SM CLR 23/17 A2999 RMK AO1
KF70 190235Z AUTO 21004KT 10SM CLR 23/17 A2998 RMK AO1
KF70 190215Z AUTO 20008KT 10SM CLR 23/18 A2997 RMK AO1
KF70 190155Z AUTO 22006KT 10SM CLR 25/18 A2997 RMK AO1
KF70 190135Z AUTO 21007KT 160V230 10SM CLR 26/18 A2996 RMK AO1
KF70 190115Z AUTO 20010KT 10SM CLR 27/18 A2996 RMK AO1
KF70 190055Z AUTO 20009KT 10SM CLR 29/18 A2995 RMK AO1
KF70 190035Z AUTO 21008KT 10SM CLR 29/18 A2995 RMK AO1
KF70 190015Z AUTO 22010KT 190V250 10SM CLR 32/17 A2995 RMK AO1
KF70 182355Z AUTO 22008KT 10SM CLR 32/17 A2996 RMK AO1
KF70 182335Z AUTO 20007KT 10SM CLR 32/17 A2996 RMK AO1
KF70 182315Z AUTO 22006KT 10SM CLR 31/17 A2996 RMK AO1
KF70 182255Z AUTO 22007KT 10SM CLR 30/17 A2997 RMK AO1
KF70 182235Z AUTO 23007KT 10SM CLR 30/17 A2997 RMK AO1
KF70 182215Z AUTO 21008G14KT 10SM CLR 29/17 A2998 RMK AO1
KF70 182155Z AUTO 21007KT 10SM CLR 29/17 A2999 RMK AO1
KF70 182135Z AUTO 21008G16KT 10SM CLR 31/17 A3000 RMK AO1
KF70 182115Z AUTO 20010KT 10SM CLR 31/18 A2999 RMK AO1
KF70 182055Z AUTO 22009KT 10SM CLR 32/18 A2999 RMK AO1
KF70 182035Z AUTO 20009KT 10SM CLR 31/18 A3000 RMK AO1
KF70 182015Z AUTO 19009KT 10SM CLR 31/18 A3001 RMK AO1
KF70 181955Z AUTO 19009KT 10SM CLR 31/18 A3001 RMK AO1
KF70 181935Z AUTO 20006KT 10SM CLR 30/18 A3001 RMK AO1
KF70 181915Z AUTO 23006KT 10SM CLR 30/18 A3002 RMK AO1
KF70 181855Z AUTO 18005KT 10SM CLR 29/18 A3003 RMK AO1
KF70 181835Z AUTO 20004KT 10SM CLR 28/17 A3004 RMK AO1
KF70 181815Z AUTO 00000KT 10SM CLR 27/17 A3004 RMK AO1
KF70 181755Z AUTO 19006KT 10SM CLR 26/17 A3005 RMK AO1
KF70 181735Z AUTO 23004KT 10SM CLR 26/17 A3005 RMK AO1
KF70 181715Z AUTO 21004KT 10SM CLR 25/17 A3005 RMK AO1
KF70 181650Z AUTO 23004KT 10SM CLR 24/17 A3005 RMK AO1
KF70 181635Z AUTO 22006KT 10SM CLR 23/17 A3005 RMK AO1
KF70 181615Z AUTO 22006KT 10SM CLR 22/16 A3005 RMK AO1
KF70 181555Z AUTO 20007KT 10SM CLR 22/16 A3005 RMK AO1
KF70 181535Z AUTO 20006KT 10SM CLR 21/16 A3005 RMK AO1
KF70 181515Z AUTO 22006KT 10SM CLR 21/16 A3005 RMK AO1